createdAt,value
2022-08-22T00:01:16.246Z,12.30
2022-08-22T00:02:53.532Z,15.14
2022-08-22T00:04:10.885Z,12.33
2022-08-22T00:06:58.702Z,12.42
2022-08-22T00:09:35.804Z,12.57
2022-08-22T00:12:06.510Z,12.65
2022-08-22T00:14:54.885Z,12.68
2022-08-22T00:17:21.467Z,12.69
2022-08-22T00:19:55.843Z,12.62
2022-08-22T00:22:47.690Z,12.64
2022-08-22T00:25:32.925Z,12.58
2022-08-22T00:28:20.786Z,12.57
2022-08-22T00:31:10.942Z,12.44
2022-08-22T00:33:48.024Z,12.47
2022-08-22T00:36:19.426Z,12.55
2022-08-22T00:38:53.724Z,12.59
2022-08-22T00:41:30.170Z,12.59
2022-08-22T00:44:08.925Z,12.68
2022-08-22T00:46:57.899Z,12.76
2022-08-22T00:49:40.473Z,12.86
2022-08-22T00:52:21.848Z,12.92
2022-08-22T00:54:52.430Z,12.79
2022-08-22T00:57:41.501Z,12.69
2022-08-22T01:00:14.191Z,12.66
2022-08-22T01:03:09.773Z,12.67
2022-08-22T01:05:47.530Z,12.65
2022-08-22T01:08:35.748Z,12.41
2022-08-22T01:11:11.794Z,12.29
2022-08-22T01:13:59.678Z,12.19
2022-08-22T01:17:01.115Z,12.14
2022-08-22T01:19:43.219Z,12.06
2022-08-22T01:22:43.992Z,12.00
2022-08-22T01:25:22.675Z,11.90
2022-08-22T01:28:15.111Z,11.79
2022-08-22T01:31:01.494Z,11.80
2022-08-22T01:34:05.757Z,11.87
2022-08-22T01:37:15.752Z,11.91
2022-08-22T01:39:42.684Z,11.92
2022-08-22T01:42:15.438Z,11.95
2022-08-22T01:44:51.321Z,11.95
2022-08-22T01:47:24.367Z,11.90
2022-08-22T01:50:03.151Z,11.95
2022-08-22T01:53:01.915Z,11.90
2022-08-22T01:56:06.563Z,11.91
2022-08-22T01:58:37.332Z,11.90
2022-08-22T02:01:41.504Z,11.97
2022-08-22T02:04:30.543Z,11.93
2022-08-22T02:07:31.755Z,11.91
2022-08-22T02:10:19.645Z,11.85
2022-08-22T02:12:58.615Z,11.85
2022-08-22T02:15:48.343Z,11.85
2022-08-22T02:18:26.645Z,11.88
2022-08-22T02:21:12.425Z,11.88
2022-08-22T02:23:56.149Z,11.71
2022-08-22T02:26:29.345Z,11.62
2022-08-22T02:29:15.605Z,11.40
2022-08-22T02:31:54.013Z,11.29
2022-08-22T02:34:26.956Z,11.23
2022-08-22T02:36:58.197Z,11.32
2022-08-22T02:39:50.678Z,11.42
2022-08-22T02:42:41.920Z,11.46
2022-08-22T02:45:17.955Z,11.58
2022-08-22T02:47:57.248Z,11.54
2022-08-22T02:50:38.026Z,11.53
2022-08-22T02:53:16.887Z,11.35
2022-08-22T02:55:50.854Z,11.16
2022-08-22T02:58:27.428Z,11.11
2022-08-22T03:01:03.433Z,11.04
2022-08-22T03:03:38.024Z,11.05
2022-08-22T03:06:28.497Z,11.04
2022-08-22T03:09:31.786Z,10.98
2022-08-22T03:12:13.333Z,11.07
2022-08-22T03:14:53.145Z,10.92
2022-08-22T03:17:27.785Z,10.84
2022-08-22T03:20:07.320Z,10.84
2022-08-22T03:22:54.125Z,10.82
2022-08-22T03:25:44.234Z,10.85
2022-08-22T03:28:18.193Z,10.85
2022-08-22T03:30:58.205Z,10.87
2022-08-22T03:33:30.755Z,10.91
2022-08-22T03:35:59.933Z,10.94
2022-08-22T03:38:53.913Z,10.99
2022-08-22T03:41:29.923Z,11.01
2022-08-22T03:44:15.326Z,11.03
2022-08-22T03:46:48.090Z,11.07
2022-08-22T03:49:46.824Z,11.07
2022-08-22T03:52:35.122Z,10.99
2022-08-22T03:55:40.232Z,10.95
2022-08-22T03:58:29.112Z,10.96
2022-08-22T04:01:30.228Z,10.94
2022-08-22T04:04:02.477Z,10.99
2022-08-22T04:06:50.690Z,11.00
2022-08-22T04:09:35.286Z,10.91
2022-08-22T04:12:44.295Z,10.94
2022-08-22T04:15:47.469Z,10.85
2022-08-22T04:18:36.340Z,10.79
2022-08-22T04:21:30.843Z,10.73
2022-08-22T04:24:19.189Z,10.69
2022-08-22T04:26:59.911Z,10.73
2022-08-22T04:29:50.359Z,10.76
2022-08-22T04:32:23.081Z,10.68
2022-08-22T04:35:24.422Z,10.59
2022-08-22T04:38:31.007Z,10.60
2022-08-22T04:41:07.780Z,10.69
2022-08-22T04:43:57.754Z,10.76
2022-08-22T04:46:52.799Z,10.76
2022-08-22T04:49:43.575Z,10.83
2022-08-22T04:52:47.211Z,10.73
2022-08-22T04:55:27.226Z,10.73
2022-08-22T04:58:06.533Z,10.67
2022-08-22T05:01:08.846Z,10.71
2022-08-22T05:03:44.869Z,10.79
2022-08-22T05:06:15.826Z,10.91
2022-08-22T05:08:45.620Z,11.06
2022-08-22T05:11:19.004Z,11.19
2022-08-22T05:13:55.038Z,11.38
2022-08-22T05:16:25.745Z,11.50
2022-08-22T05:18:58.227Z,11.57
2022-08-22T05:21:31.570Z,11.68
2022-08-22T05:24:07.722Z,11.77
2022-08-22T05:26:38.998Z,11.93
2022-08-22T05:29:10.550Z,12.08
2022-08-22T05:31:57.344Z,12.25
2022-08-22T05:34:29.306Z,12.42
2022-08-22T05:37:02.974Z,12.56
2022-08-22T05:39:31.125Z,12.76
2022-08-22T05:42:01.962Z,12.94
2022-08-22T05:44:38.200Z,13.13
2022-08-22T05:47:35.510Z,13.38
2022-08-22T05:50:10.710Z,13.52
2022-08-22T05:52:46.627Z,13.68
2022-08-22T05:55:29.433Z,13.72
2022-08-22T05:58:17.814Z,13.81
2022-08-22T06:00:52.269Z,13.88
2022-08-22T06:03:26.156Z,14.04
2022-08-22T06:05:58.259Z,14.22
2022-08-22T06:08:25.346Z,14.40
2022-08-22T06:10:57.020Z,14.54
2022-08-22T06:13:41.315Z,14.76
2022-08-22T06:16:12.228Z,14.98
2022-08-22T06:18:43.351Z,15.13
2022-08-22T06:21:17.924Z,15.35
2022-08-22T06:23:51.249Z,15.58
2022-08-22T06:26:20.385Z,15.70
2022-08-22T06:28:54.677Z,15.77
2022-08-22T06:31:34.154Z,16.01
2022-08-22T06:34:09.687Z,16.15
2022-08-22T06:36:39.587Z,16.38
2022-08-22T06:39:14.943Z,16.58
2022-08-22T06:41:57.193Z,16.62
2022-08-22T06:44:30.775Z,16.65
2022-08-22T06:47:00.324Z,16.68
2022-08-22T06:49:29.523Z,16.72
2022-08-22T06:52:07.714Z,16.81
2022-08-22T06:54:38.899Z,16.88
2022-08-22T06:57:06.934Z,17.14
2022-08-22T06:59:38.080Z,17.31
2022-08-22T07:02:21.050Z,17.45
2022-08-22T07:04:49.655Z,17.56
2022-08-22T07:07:20.297Z,17.51
2022-08-22T07:09:55.668Z,17.79
2022-08-22T07:12:28.857Z,18.08
2022-08-22T07:15:01.035Z,18.27
2022-08-22T07:17:31.273Z,18.17
2022-08-22T07:20:18.848Z,18.65
2022-08-22T07:23:01.258Z,18.93
2022-08-22T07:25:29.676Z,18.79
2022-08-22T07:28:21.525Z,19.04
2022-08-22T07:31:34.274Z,19.31
2022-08-22T07:34:04.419Z,19.29
2022-08-22T07:36:50.511Z,19.39
2022-08-22T07:39:30.411Z,19.58
2022-08-22T07:42:11.409Z,19.56
2022-08-22T07:45:09.415Z,19.16
2022-08-22T07:47:49.873Z,19.50
2022-08-22T07:50:22.888Z,19.79
2022-08-22T07:52:50.728Z,19.86
2022-08-22T07:55:23.887Z,19.95
2022-08-22T07:57:58.588Z,20.37
2022-08-22T08:00:29.367Z,20.77
2022-08-22T08:03:01.203Z,20.60
2022-08-22T08:05:32.543Z,20.93
2022-08-22T08:08:03.942Z,21.21
2022-08-22T08:10:35.715Z,21.32
2022-08-22T08:13:07.293Z,21.17
2022-08-22T08:15:37.735Z,21.14
2022-08-22T08:18:10.641Z,21.23
2022-08-22T08:20:37.817Z,21.04
2022-08-22T08:23:08.933Z,21.18
2022-08-22T08:26:01.606Z,21.57
2022-08-22T08:28:35.186Z,21.73
2022-08-22T08:31:43.056Z,21.51
2022-08-22T08:34:24.893Z,21.92
2022-08-22T08:36:54.310Z,22.24
2022-08-22T08:39:32.499Z,22.46
2022-08-22T08:42:24.216Z,22.50
2022-08-22T08:45:03.253Z,22.45
2022-08-22T08:47:36.987Z,22.55
2022-08-22T08:50:20.373Z,22.68
2022-08-22T08:53:17.282Z,22.58
2022-08-22T08:55:44.107Z,22.73
2022-08-22T08:58:32.915Z,23.02
2022-08-22T09:01:19.419Z,23.14
2022-08-22T09:04:15.381Z,23.44
2022-08-22T09:07:01.661Z,23.40
2022-08-22T09:09:37.719Z,23.58
2022-08-22T09:12:34.091Z,23.89
2022-08-22T09:15:14.118Z,24.04
2022-08-22T09:18:13.708Z,23.76
2022-08-22T09:21:07.055Z,24.27
2022-08-22T09:23:41.707Z,24.63
2022-08-22T09:26:22.847Z,24.78
2022-08-22T09:29:00.215Z,24.74
2022-08-22T09:31:47.610Z,24.72
2022-08-22T09:34:38.103Z,24.99
2022-08-22T09:37:26.665Z,24.93
2022-08-22T09:43:01.567Z,25.24
2022-08-22T09:45:40.871Z,25.37
2022-08-22T09:48:18.852Z,25.24
2022-08-22T09:50:56.464Z,24.99
2022-08-22T09:53:40.670Z,25.05
2022-08-22T09:56:20.396Z,25.24
2022-08-22T09:59:01.947Z,24.48
2022-08-22T10:01:40.306Z,23.78
2022-08-22T10:04:28.068Z,23.82
2022-08-22T10:07:31.737Z,23.60
2022-08-22T10:10:11.002Z,23.52
2022-08-22T10:12:59.942Z,23.35
2022-08-22T10:15:42.203Z,23.28
2022-08-22T10:18:30.861Z,22.93
2022-08-22T10:21:32.637Z,22.80
2022-08-22T10:24:25.087Z,22.92
2022-08-22T10:26:56.142Z,22.71
2022-08-22T10:29:26.394Z,22.67
2022-08-22T10:32:00.086Z,22.67
2022-08-22T10:34:37.064Z,22.02
2022-08-22T10:37:30.640Z,21.94
2022-08-22T10:40:05.011Z,23.10
2022-08-22T10:42:42.862Z,23.88
2022-08-22T10:45:24.004Z,23.68
2022-08-22T10:48:08.604Z,23.64
2022-08-22T10:50:47.867Z,23.65
2022-08-22T10:53:31.313Z,23.99
2022-08-22T10:56:08.538Z,24.15
2022-08-22T10:58:45.268Z,24.03
2022-08-22T11:01:38.409Z,24.86
2022-08-22T11:04:28.343Z,25.79
2022-08-22T11:07:14.466Z,26.74
2022-08-22T11:09:55.343Z,26.67
2022-08-22T11:12:34.916Z,25.98
2022-08-22T11:15:40.804Z,26.86
2022-08-22T11:18:51.503Z,27.87
2022-08-22T11:21:51.162Z,28.64
2022-08-22T11:24:46.495Z,29.22
2022-08-22T11:27:43.079Z,30.13
2022-08-22T11:30:18.702Z,29.95
2022-08-22T11:32:59.559Z,29.52
2022-08-22T11:35:36.887Z,28.82
2022-08-22T11:38:33.039Z,27.23
2022-08-22T11:41:10.192Z,26.69
2022-08-22T11:43:52.318Z,26.94
2022-08-22T11:46:31.466Z,28.26
2022-08-22T11:49:11.087Z,29.31
2022-08-22T11:52:23.782Z,29.82
2022-08-22T11:55:07.189Z,29.52
2022-08-22T11:57:41.700Z,30.25
2022-08-22T12:00:33.407Z,31.48
2022-08-22T12:03:28.754Z,32.32
2022-08-22T12:06:12.704Z,30.80
2022-08-22T12:09:19.188Z,31.36
2022-08-22T12:12:01.785Z,31.94
2022-08-22T12:14:44.435Z,28.79
2022-08-22T12:17:55.470Z,27.11
2022-08-22T12:20:29.341Z,26.31
2022-08-22T12:23:43.416Z,27.89
2022-08-22T12:26:35.342Z,28.98
2022-08-22T12:29:33.901Z,30.57
2022-08-22T12:32:49.291Z,30.53
2022-08-22T12:35:30.848Z,31.78
2022-08-22T12:38:28.798Z,33.13
2022-08-22T12:41:08.834Z,33.22
2022-08-22T12:44:00.192Z,33.83
2022-08-22T12:46:47.521Z,32.92
2022-08-22T12:49:33.909Z,33.07
2022-08-22T12:52:08.850Z,33.48
2022-08-22T12:54:38.864Z,33.33
2022-08-22T12:57:24.044Z,32.54
2022-08-22T13:00:02.520Z,33.14
2022-08-22T13:02:34.836Z,34.36
2022-08-22T13:05:20.760Z,33.30
2022-08-22T13:08:02.373Z,34.82
2022-08-22T13:11:02.370Z,33.96
2022-08-22T13:13:36.886Z,32.76
2022-08-22T13:16:15.616Z,33.02
2022-08-22T13:18:47.239Z,32.49
2022-08-22T13:21:28.853Z,32.12
2022-08-22T13:24:16.790Z,33.49
2022-08-22T13:27:00.480Z,33.20
2022-08-22T13:29:45.497Z,33.24
2022-08-22T13:32:31.448Z,32.47
2022-08-22T13:35:00.752Z,32.56
2022-08-22T13:37:38.474Z,32.30
2022-08-22T13:40:10.162Z,32.08
2022-08-22T13:42:47.845Z,32.87
2022-08-22T13:45:28.094Z,31.99
2022-08-22T13:47:59.459Z,33.13
2022-08-22T13:50:53.868Z,33.87
2022-08-22T13:53:32.744Z,33.78
2022-08-22T13:56:15.854Z,33.48
2022-08-22T13:58:47.290Z,33.21
2022-08-22T14:01:40.909Z,33.48
2022-08-22T14:04:35.608Z,33.97
2022-08-22T14:07:04.400Z,33.72
2022-08-22T14:09:50.161Z,33.00
2022-08-22T14:12:32.345Z,33.99
2022-08-22T14:15:04.284Z,34.50
2022-08-22T14:17:33.881Z,35.22
2022-08-22T14:20:11.118Z,36.20
2022-08-22T14:22:41.230Z,34.99
2022-08-22T14:25:28.466Z,34.39
2022-08-22T14:28:09.069Z,34.24
2022-08-22T14:30:54.650Z,34.06
2022-08-22T14:33:33.269Z,33.74
2022-08-22T14:36:14.113Z,34.26
2022-08-22T14:38:46.324Z,33.89
2022-08-22T14:41:23.511Z,33.95
2022-08-22T14:43:57.273Z,33.87
2022-08-22T14:46:31.921Z,33.57
2022-08-22T14:49:20.587Z,34.33
2022-08-22T14:52:19.506Z,33.85
2022-08-22T14:54:47.444Z,32.83
2022-08-22T14:57:20.316Z,33.38
2022-08-22T14:59:52.643Z,33.03
2022-08-22T15:02:27.816Z,32.86
2022-08-22T15:04:56.530Z,33.70
2022-08-22T15:07:31.209Z,33.82
2022-08-22T15:10:26.640Z,33.91
2022-08-22T15:13:02.566Z,32.97
2022-08-22T15:15:54.346Z,32.93
2022-08-22T15:18:28.836Z,34.06
2022-08-22T15:21:10.023Z,34.20
2022-08-22T15:23:45.118Z,33.68
2022-08-22T15:26:41.366Z,33.01
2022-08-22T15:29:15.225Z,32.63
2022-08-22T15:31:46.510Z,33.28
2022-08-22T15:34:34.091Z,33.34
2022-08-22T15:37:09.884Z,33.07
2022-08-22T15:40:08.229Z,32.99
2022-08-22T15:42:47.653Z,32.70
2022-08-22T15:45:34.874Z,32.78
2022-08-22T15:48:08.139Z,32.31
2022-08-22T15:50:39.605Z,31.93
2022-08-22T15:53:08.884Z,31.66
2022-08-22T15:55:37.913Z,32.14
2022-08-22T15:58:21.936Z,31.62
2022-08-22T16:01:18.715Z,30.75
2022-08-22T16:03:58.381Z,30.28
2022-08-22T16:06:49.107Z,29.96
2022-08-22T16:09:29.631Z,29.94
2022-08-22T16:12:00.980Z,30.17
2022-08-22T16:14:33.906Z,29.48
2022-08-22T16:17:23.845Z,29.22
2022-08-22T16:20:19.265Z,28.32
2022-08-22T16:22:59.041Z,26.69
2022-08-22T16:25:44.498Z,25.96
2022-08-22T16:28:41.416Z,25.31
2022-08-22T16:31:34.916Z,24.85
2022-08-22T16:34:48.654Z,24.43
2022-08-22T16:37:18.150Z,23.90
2022-08-22T16:39:45.102Z,22.99
2022-08-22T16:42:24.069Z,23.08
2022-08-22T16:44:56.852Z,22.92
2022-08-22T16:47:52.700Z,22.60
2022-08-22T16:50:41.052Z,22.43
2022-08-22T16:53:07.822Z,22.32
2022-08-22T16:55:36.134Z,22.15
2022-08-22T16:58:56.186Z,22.02
2022-08-22T17:01:56.074Z,21.82
2022-08-22T17:04:43.850Z,21.75
2022-08-22T17:07:15.521Z,21.62
2022-08-22T17:10:17.984Z,21.41
2022-08-22T17:12:53.922Z,21.36
2022-08-22T17:15:26.832Z,21.25
2022-08-22T17:18:12.198Z,21.07
2022-08-22T17:21:01.751Z,21.03
2022-08-22T17:23:34.926Z,20.90
2022-08-22T17:26:04.852Z,20.87
2022-08-22T17:28:40.858Z,20.76
2022-08-22T17:31:13.874Z,20.60
2022-08-22T17:33:40.803Z,20.64
2022-08-22T17:36:27.268Z,20.52
2022-08-22T17:39:21.482Z,20.49
2022-08-22T17:42:37.507Z,20.45
2022-08-22T17:45:04.426Z,20.30
2022-08-22T17:48:02.189Z,20.15
2022-08-22T17:50:50.430Z,20.12
2022-08-22T17:53:41.655Z,20.06
2022-08-22T17:56:14.685Z,19.83
2022-08-22T17:59:09.626Z,19.76
2022-08-22T18:01:43.919Z,19.72
2022-08-22T18:04:34.663Z,19.60
2022-08-22T18:07:24.070Z,19.51
2022-08-22T18:10:06.384Z,19.53
2022-08-22T18:13:06.926Z,19.48
2022-08-22T18:15:40.600Z,19.26
2022-08-22T18:18:20.315Z,19.02
2022-08-22T18:21:03.162Z,18.88
2022-08-22T18:23:40.245Z,18.73
2022-08-22T18:26:20.626Z,18.67
2022-08-22T18:29:25.614Z,18.62
2022-08-22T18:32:20.015Z,18.47
2022-08-22T18:34:56.643Z,18.42
2022-08-22T18:37:43.678Z,18.31
2022-08-22T18:40:25.349Z,18.11
2022-08-22T18:42:54.189Z,17.99
2022-08-22T18:46:03.911Z,17.92
2022-08-22T18:48:34.260Z,17.82
2022-08-22T18:51:15.634Z,17.70
2022-08-22T18:53:45.644Z,17.54
2022-08-22T18:56:42.561Z,17.44
2022-08-22T18:59:13.828Z,17.37
2022-08-22T19:01:59.468Z,17.29
2022-08-22T19:05:02.788Z,17.31
2022-08-22T19:07:51.125Z,17.26
2022-08-22T19:10:49.104Z,17.14
2022-08-22T19:13:30.148Z,16.97
2022-08-22T19:16:13.473Z,16.88
2022-08-22T19:18:40.396Z,16.69
2022-08-22T19:22:18.171Z,16.52
2022-08-22T19:25:12.567Z,16.43
2022-08-22T19:27:45.472Z,16.45
2022-08-22T19:30:34.260Z,16.40
2022-08-22T19:33:04.771Z,16.40
2022-08-22T19:35:43.107Z,16.39
2022-08-22T19:38:10.928Z,16.22
2022-08-22T19:40:54.125Z,16.24
2022-08-22T19:43:20.835Z,16.12
2022-08-22T19:45:49.459Z,16.05
2022-08-22T19:48:17.366Z,15.90
2022-08-22T19:50:44.123Z,15.75
2022-08-22T19:53:33.503Z,15.59
2022-08-22T19:56:09.573Z,15.49
2022-08-22T19:59:02.924Z,15.34
2022-08-22T20:01:40.152Z,15.27
2022-08-22T20:04:28.459Z,15.12
2022-08-22T20:07:16.686Z,15.02
2022-08-22T20:10:18.933Z,15.02
2022-08-22T20:12:51.628Z,15.10
2022-08-22T20:15:22.603Z,15.13
2022-08-22T20:20:54.587Z,15.17
2022-08-22T20:23:31.231Z,15.19
2022-08-22T20:25:58.883Z,15.16
2022-08-22T20:28:58.546Z,15.12
2022-08-22T20:31:27.591Z,15.04
2022-08-22T20:34:03.990Z,15.02
2022-08-22T20:36:31.479Z,14.97
2022-08-22T20:39:02.971Z,14.99
2022-08-22T20:41:30.059Z,15.01
2022-08-22T20:44:13.720Z,15.01
2022-08-22T20:46:55.166Z,15.01
2022-08-22T20:49:44.591Z,15.05
2022-08-22T20:52:21.705Z,15.09
2022-08-22T20:55:02.491Z,15.05
2022-08-22T20:57:30.045Z,15.01
2022-08-22T21:00:12.369Z,14.90
2022-08-22T21:02:56.596Z,14.87
2022-08-22T21:05:31.526Z,14.67
2022-08-22T21:08:19.334Z,14.61
2022-08-22T21:11:15.812Z,14.53
2022-08-22T21:13:42.812Z,14.46
2022-08-22T21:16:17.794Z,14.40
2022-08-22T21:18:53.398Z,14.38
2022-08-22T21:21:27.754Z,14.29
2022-08-22T21:24:00.565Z,14.36
2022-08-22T21:26:39.351Z,14.39
2022-08-22T21:29:20.365Z,14.36
2022-08-22T21:31:52.799Z,14.30
2022-08-22T21:34:21.545Z,14.28
2022-08-22T21:36:51.941Z,14.20
2022-08-22T21:39:23.315Z,14.04
2022-08-22T21:41:51.606Z,14.05
2022-08-22T21:44:26.642Z,13.96
2022-08-22T21:46:53.935Z,13.93
2022-08-22T21:49:29.392Z,13.85
2022-08-22T21:51:56.365Z,13.66
2022-08-22T21:54:26.101Z,13.54
2022-08-22T21:57:13.915Z,13.09
2022-08-22T21:59:51.732Z,12.95
2022-08-22T22:02:36.472Z,12.82
2022-08-22T22:05:18.213Z,12.84
2022-08-22T22:07:47.937Z,12.84
2022-08-22T22:10:18.239Z,12.85
2022-08-22T22:12:47.279Z,12.79
2022-08-22T22:15:19.566Z,12.68
2022-08-22T22:17:46.323Z,12.60
2022-08-22T22:20:15.583Z,12.54
2022-08-22T22:22:46.506Z,12.48
2022-08-22T22:25:40.075Z,12.39
2022-08-22T22:28:10.196Z,12.37
2022-08-22T22:30:37.130Z,12.32
2022-08-22T22:33:04.333Z,12.26
2022-08-22T22:35:31.756Z,12.23
2022-08-22T22:37:58.821Z,12.30
2022-08-22T22:40:25.965Z,12.32
2022-08-22T22:42:52.839Z,12.28
2022-08-22T22:45:20.638Z,12.18
2022-08-22T22:47:47.447Z,12.02
2022-08-22T22:50:14.132Z,11.94
2022-08-22T22:52:41.154Z,12.02
2022-08-22T22:55:08.793Z,11.95
2022-08-22T22:57:42.410Z,11.91
2022-08-22T23:00:11.281Z,11.93
2022-08-22T23:02:38.527Z,11.97
2022-08-22T23:05:06.104Z,11.97
2022-08-22T23:07:33.754Z,11.94
2022-08-22T23:10:01.642Z,11.82
2022-08-22T23:12:29.079Z,11.68
2022-08-22T23:14:55.804Z,11.50
2022-08-22T23:17:22.511Z,11.21
2022-08-22T23:19:50.484Z,11.20
2022-08-22T23:22:17.984Z,11.14
2022-08-22T23:24:45.003Z,11.26
2022-08-22T23:27:12.570Z,11.19
2022-08-22T23:29:41.196Z,11.03
2022-08-22T23:32:09.475Z,10.96
2022-08-22T23:34:46.080Z,10.94
2022-08-22T23:37:19.887Z,10.93
2022-08-22T23:39:46.848Z,11.08
2022-08-22T23:42:14.381Z,10.95
2022-08-22T23:44:42.868Z,10.83
2022-08-22T23:47:10.360Z,10.80
2022-08-22T23:49:38.683Z,10.85
2022-08-22T23:52:07.844Z,10.98
2022-08-22T23:54:34.907Z,11.01
2022-08-22T23:57:03.982Z,11.08
2022-08-22T23:59:46.393Z,11.16
